Time;durP1;ratioP1;P1;durP2;ratioP2;P2;SDS_P1;SDS_P2;PMS_P1;PMS_P2;Temp;Humidity;BMP_temperature;BMP_pressure;BME280_temperature;BME280_humidity;BME280_pressure;Samples;Min_cycle;Max_cycle;Signal;HPM_P1;HPM_P2
2021/08/04 00:02:02;;;;;;;;;7.00;7.00;;;;;19.10;54.57;100627.19;5016443;28;45802;-80
2021/08/04 00:04:28;;;;;;;;;8.25;7.25;;;;;19.07;54.46;100627.50;5018921;28;46375;-82
2021/08/04 00:10:15;;;;;;;;;5.25;5.25;;;;;19.07;54.74;100620.34;5014114;28;45651;-79
2021/08/04 00:12:41;;;;;;;;;9.75;9.50;;;;;19.10;55.00;100627.19;5014586;28;46942;-77
2021/08/04 00:15:07;;;;;;;;;8.00;8.00;;;;;18.98;54.95;100613.38;5014488;28;45650;-77
2021/08/04 00:17:33;;;;;;;;;7.75;7.25;;;;;19.10;54.81;100635.97;5014244;28;45705;-78
2021/08/04 00:19:58;;;;;;;;;7.75;7.50;;;;;19.10;54.78;100635.16;5014253;28;45560;-75
2021/08/04 00:25:46;;;;;;;;;8.00;8.00;;;;;19.08;54.75;100631.81;5013874;28;45666;-77
2021/08/04 00:28:11;;;;;;;;;7.00;6.50;;;;;19.11;55.06;100632.31;5014059;28;45607;-79
2021/08/04 00:30:37;;;;;;;;;9.00;8.00;;;;;19.03;55.24;100619.03;5014079;28;45742;-79
2021/08/04 00:33:02;;;;;;;;;8.50;7.00;;;;;19.10;55.13;100627.19;5014015;28;45668;-77
2021/08/04 00:35:28;;;;;;;;;10.50;9.25;;;;;19.12;55.14;100633.97;5013920;28;45740;-81
2021/08/04 00:37:53;;;;;;;;;8.25;7.50;;;;;19.12;54.89;100623.34;5014145;28;45574;-80
2021/08/04 00:40:19;;;;;;;;;7.25;7.25;;;;;19.05;55.26;100603.78;5014183;28;45581;-79
2021/08/04 00:42:44;;;;;;;;;7.50;7.50;;;;;19.12;55.43;100615.38;5017201;28;45719;-77
2021/08/04 00:45:10;;;;;;;;;8.75;8.75;;;;;19.13;55.52;100621.53;5017701;28;45943;-81
2021/08/04 00:47:37;;;;;;;;;11.00;10.00;;;;;19.13;55.63;100622.34;5000006;28;45697;-79
2021/08/04 00:50:03;;;;;;;;;9.75;9.50;;;;;19.08;55.64;100610.56;5018458;28;45524;-78
2021/08/04 00:55:53;;;;;;;;;9.00;8.00;;;;;19.12;55.43;100603.94;5020732;28;45657;-82
2021/08/04 00:58:36;;;;;;;;;8.25;6.00;;;;;19.08;55.50;100597.28;5019725;28;45641;-77
2021/08/04 01:01:21;;;;;;;;;8.50;8.50;;;;;19.12;55.32;100607.41;5019888;28;45818;-78
2021/08/04 01:03:51;;;;;;;;;7.75;7.00;;;;;19.06;55.27;100594.78;5020482;28;47223;-80
2021/08/04 01:06:35;;;;;;;;;12.00;9.50;;;;;19.09;55.47;100599.78;5021244;28;45931;-81
2021/08/04 01:09:01;;;;;;;;;9.25;8.25;;;;;19.09;55.60;100605.09;5024121;28;45703;-78
2021/08/04 01:11:33;;;;;;;;;8.50;8.00;;;;;19.08;55.32;100602.59;5024450;28;45746;-79
2021/08/04 01:14:03;;;;;;;;;9.50;8.00;;;;;19.05;55.59;100598.47;5025068;28;45905;-80
2021/08/04 01:16:32;;;;;;;;;9.00;8.75;;;;;19.05;55.82;100594.97;5025513;28;46032;-78
2021/08/04 01:19:17;;;;;;;;;9.25;9.25;;;;;18.93;55.69;100572.38;5022420;28;45466;-79
2021/08/04 01:22:16;;;;;;;;;7.25;7.25;;;;;19.02;55.50;100593.47;5017141;28;45567;-78
2021/08/04 01:24:53;;;;;;;;;11.25;9.00;;;;;19.01;55.90;100596.28;5016644;28;45595;-75
2021/08/04 01:27:20;;;;;;;;;9.00;8.00;;;;;19.00;56.12;100594.63;5016558;28;45958;-84
2021/08/04 01:29:48;;;;;;;;;10.00;8.75;;;;;18.99;55.85;100593.81;5016838;28;45784;-76
2021/08/04 01:32:15;;;;;;;;;9.00;8.00;;;;;18.99;55.88;100592.97;5016650;28;45631;-79
2021/08/04 01:34:41;;;;;;;;;10.25;10.25;;;;;19.00;56.23;100594.63;5016523;28;46489;-81
2021/08/04 01:37:08;;;;;;;;;8.75;8.00;;;;;19.00;55.92;100589.31;5015873;28;47074;-80
2021/08/04 01:39:34;;;;;;;;;8.75;7.75;;;;;18.93;56.34;100570.56;5016161;28;45705;-79
2021/08/04 01:42:01;;;;;;;;;10.50;9.50;;;;;18.98;56.32;100586.81;4998523;28;45576;-79
2021/08/04 01:44:28;;;;;;;;;9.00;9.00;;;;;18.96;55.78;100580.84;5016085;28;46413;-78
2021/08/04 01:46:55;;;;;;;;;9.75;8.25;;;;;18.91;55.91;100575.19;5016292;28;46419;-76
2021/08/04 01:49:21;;;;;;;;;10.75;9.75;;;;;18.93;56.30;100575.03;5016297;28;45588;-78
2021/08/04 01:51:48;;;;;;;;;8.75;8.50;;;;;18.88;55.97;100566.72;5016344;28;45855;-78
2021/08/04 01:54:16;;;;;;;;;9.00;8.25;;;;;18.92;56.32;100576.84;5014807;28;46446;-80
2021/08/04 01:56:41;;;;;;;;;12.00;8.00;;;;;18.84;56.08;100558.25;5016084;28;45653;-81
2021/08/04 01:59:07;;;;;;;;;8.75;8.00;;;;;18.93;56.53;100570.56;5016293;28;45560;-78
2021/08/04 02:01:36;;;;;;;;;11.25;10.00;;;;;18.90;56.25;100568.22;5015941;28;45599;-77
2021/08/04 02:04:01;;;;;;;;;8.00;8.00;;;;;18.85;56.41;100560.75;5016097;28;46575;-79
2021/08/04 02:06:38;;;;;;;;;11.00;10.50;;;;;18.88;56.48;100564.91;4997631;28;46224;-76
2021/08/04 02:09:20;;;;;;;;;8.75;7.50;;;;;18.88;55.99;100570.22;5015616;28;45761;-77
2021/08/04 02:11:59;;;;;;;;;7.75;7.25;;;;;18.86;56.54;100567.72;5016152;28;45536;-78
2021/08/04 02:14:34;;;;;;;;;8.75;8.75;;;;;18.73;56.31;100542.66;5015249;28;46428;-78
2021/08/04 02:17:04;;;;;;;;;9.00;8.50;;;;;18.85;56.55;100563.38;5015731;28;45624;-79
2021/08/04 02:19:42;;;;;;;;;10.00;9.00;;;;;18.84;55.98;100569.69;5015671;28;45670;-81
2021/08/04 02:22:15;;;;;;;;;10.75;9.75;;;;;18.83;56.08;100568.06;5015796;28;45700;-78
2021/08/04 02:24:45;;;;;;;;;8.25;8.00;;;;;18.81;56.12;100564.72;5015907;28;45859;-77
2021/08/04 02:27:12;;;;;;;;;8.50;7.75;;;;;18.81;56.30;100558.56;4997793;28;47545;-79
2021/08/04 02:29:41;;;;;;;;;8.00;7.25;;;;;18.79;56.22;100564.03;5015650;28;45548;-77
2021/08/04 02:32:07;;;;;;;;;7.50;7.00;;;;;18.70;56.65;100546.44;5016009;28;45620;-78
2021/08/04 02:34:33;;;;;;;;;7.00;7.00;;;;;18.75;56.43;100554.75;5014216;28;48602;-78
2021/08/04 02:36:59;;;;;;;;;9.00;8.50;;;;;18.75;56.05;100545.97;5015358;28;46161;-78
2021/08/04 02:39:25;;;;;;;;;9.50;8.50;;;;;18.74;56.08;100547.78;5015623;28;45507;-78
2021/08/04 02:41:51;;;;;;;;;9.00;9.00;;;;;18.72;56.52;100541.81;5015572;28;45709;-76
2021/08/04 02:44:18;;;;;;;;;11.00;10.00;;;;;18.71;56.38;100540.16;5015419;28;45565;-77
2021/08/04 02:46:46;;;;;;;;;7.25;7.25;;;;;18.70;56.49;100546.44;5015621;28;45921;-77
2021/08/04 02:49:14;;;;;;;;;10.00;7.50;;;;;18.68;56.21;100547.59;5015103;28;45902;-76
2021/08/04 02:51:41;;;;;;;;;7.75;7.00;;;;;18.66;56.28;100545.13;5015587;28;45798;-77
2021/08/04 02:54:06;;;;;;;;;9.00;8.00;;;;;18.61;56.33;100535.97;5015157;28;46623;-77
2021/08/04 02:56:32;;;;;;;;;8.25;7.00;;;;;18.56;56.76;100531.16;5015089;28;46280;-77
2021/08/04 02:58:57;;;;;;;;;8.50;8.50;;;;;18.61;56.66;100542.13;5015934;28;45645;-77
2021/08/04 03:01:23;;;;;;;;;8.00;7.25;;;;;18.59;56.14;100541.44;5016245;28;45676;-78
2021/08/04 03:03:48;;;;;;;;;7.25;7.00;;;;;18.55;56.20;100531.31;5015759;28;45550;-77
2021/08/04 03:06:13;;;;;;;;;11.00;9.00;;;;;18.57;56.47;100535.47;5015898;28;45655;-77
2021/08/04 03:12:13;;;;;;;;;7.50;7.00;;;;;18.49;56.23;100538.06;5012131;28;45900;-77
2021/08/04 03:14:39;;;;;;;;;5.75;5.75;;;;;18.46;56.32;100536.56;5019453;28;46338;-80
2021/08/04 03:17:04;;;;;;;;;8.50;8.25;;;;;18.49;56.53;100548.69;5022846;28;46342;-78
2021/08/04 03:19:30;;;;;;;;;8.75;8.00;;;;;18.47;56.81;100537.38;5023508;28;45698;-76
2021/08/04 03:21:56;;;;;;;;;9.00;9.00;;;;;18.39;56.54;100532.06;5023506;28;45695;-80
2021/08/04 03:27:43;;;;;;;;;8.50;7.75;;;;;18.33;56.64;100522.94;5018859;28;46036;-76
2021/08/04 03:30:09;;;;;;;;;8.00;8.00;;;;;18.37;57.00;100524.28;5015566;28;45696;-80
2021/08/04 03:32:37;;;;;;;;;8.00;7.50;;;;;18.37;56.28;100526.91;5015230;28;45750;-78
2021/08/04 03:35:04;;;;;;;;;8.00;8.00;;;;;18.33;56.87;100514.97;5014790;28;46246;-78
2021/08/04 03:37:29;;;;;;;;;9.75;8.50;;;;;18.31;56.99;100509.00;5014713;28;46063;-84
2021/08/04 03:39:55;;;;;;;;;9.00;9.00;;;;;18.26;56.58;100511.31;5015101;28;45616;-77
2021/08/04 03:42:20;;;;;;;;;8.00;7.50;;;;;18.32;57.11;100525.75;5017168;28;45807;-77
2021/08/04 03:44:45;;;;;;;;;8.50;8.50;;;;;18.26;57.05;100510.47;5014126;28;47637;-80
2021/08/04 03:47:11;;;;;;;;;11.00;9.00;;;;;18.27;57.03;100518.28;5014585;28;46134;-81
2021/08/04 03:49:36;;;;;;;;;9.00;9.00;;;;;18.17;56.96;100511.44;5014211;28;45640;-81
2021/08/04 03:52:02;;;;;;;;;7.50;7.50;;;;;18.08;56.93;100501.81;5014817;28;45892;-82
2021/08/04 03:57:49;;;;;;;;;8.75;8.00;;;;;18.15;57.26;100530.16;5013980;28;45864;-83
2021/08/04 04:00:15;;;;;;;;;8.00;7.75;;;;;18.14;57.04;100531.13;5014268;28;45493;-78
2021/08/04 04:02:41;;;;;;;;;8.00;6.00;;;;;18.10;57.07;100532.47;5014122;28;45761;-79
2021/08/04 04:05:07;;;;;;;;;9.00;9.00;;;;;18.12;56.86;100543.75;5013760;28;47367;-85
2021/08/04 04:07:34;;;;;;;;;19.00;18.00;;;;;18.02;56.84;100524.47;5014086;28;46938;-82
2021/08/04 04:10:00;;;;;;;;;11.25;10.50;;;;;18.06;57.37;100532.94;5014247;28;45903;-87
2021/08/04 04:12:33;;;;;;;;;15.25;12.25;;;;;17.98;57.10;100528.41;5014343;28;45878;-87
2021/08/04 04:14:59;;;;;;;;;13.00;12.75;;;;;18.00;57.23;100529.94;5014179;28;46516;-79
2021/08/04 04:17:28;;;;;;;;;13.00;12.00;;;;;17.97;57.41;100526.78;5014546;28;46286;-88
2021/08/04 04:19:53;;;;;;;;;8.00;8.00;;;;;17.99;57.20;100530.09;4996772;28;45753;-79
2021/08/04 04:22:18;;;;;;;;;8.00;7.00;;;;;17.90;57.60;100509.84;5014780;28;45646;-77
2021/08/04 04:28:06;;;;;;;;;8.25;8.00;;;;;17.95;57.50;100516.31;5013598;28;45564;-80
2021/08/04 04:30:31;;;;;;;;;11.00;10.00;;;;;17.88;57.02;100507.34;5014040;28;45529;-80
2021/08/04 04:32:56;;;;;;;;;9.00;8.50;;;;;17.98;57.08;100523.94;4996174;28;45947;-80
2021/08/04 04:35:22;;;;;;;;;10.75;10.50;;;;;17.93;57.54;100509.50;5013765;28;45654;-81
2021/08/04 04:37:47;;;;;;;;;11.00;8.75;;;;;17.96;57.43;100514.50;5013829;28;46419;-79
2021/08/04 04:40:13;;;;;;;;;9.75;9.00;;;;;17.95;57.52;100513.69;5013675;28;45643;-78
2021/08/04 04:42:38;;;;;;;;;11.75;10.25;;;;;17.95;57.08;100518.97;5013597;28;45614;-82
2021/08/04 04:45:04;;;;;;;;;8.25;8.00;;;;;17.95;57.20;100518.13;5013943;28;46484;-80
2021/08/04 04:47:30;;;;;;;;;16.25;15.00;;;;;17.91;57.50;100509.69;5013665;28;46693;-81
2021/08/04 04:49:55;;;;;;;;;11.25;10.25;;;;;17.88;57.29;100509.97;5013738;28;45643;-76
2021/08/04 04:52:20;;;;;;;;;9.00;9.00;;;;;17.96;57.22;100520.66;5013846;28;45603;-85
2021/08/04 04:58:07;;;;;;;;;11.00;11.00;;;;;17.95;57.37;100520.78;5013234;28;45694;-77
2021/08/04 05:00:32;;;;;;;;;8.25;7.50;;;;;17.87;57.55;100512.78;5013425;28;45686;-84
2021/08/04 05:02:58;;;;;;;;;8.00;8.00;;;;;17.75;57.42;100495.53;5013355;28;45634;-82
2021/08/04 05:05:24;;;;;;;;;9.25;7.25;;;;;17.97;57.21;100529.44;5014287;28;46357;-77
2021/08/04 05:07:49;;;;;;;;;9.75;9.75;;;;;17.93;57.10;100530.72;4996011;28;46262;-80
2021/08/04 05:13:37;;;;;;;;;8.00;7.25;;;;;17.99;57.19;100540.69;5002593;28;45639;-78
2021/08/04 05:16:03;;;;;;;;;6.25;6.25;;;;;17.95;57.28;100536.69;5013621;28;47332;-78
2021/08/04 05:18:29;;;;;;;;;11.00;9.25;;;;;18.00;57.76;100547.66;5013864;28;46589;-79
2021/08/04 05:20:54;;;;;;;;;9.00;8.00;;;;;17.97;57.22;100534.72;5014765;28;45681;-83
2021/08/04 05:23:20;;;;;;;;;9.00;9.00;;;;;17.88;57.36;100517.94;5018696;28;45684;-81
2021/08/04 05:25:45;;;;;;;;;10.00;8.00;;;;;18.02;57.29;100541.22;5017055;28;47071;-77
2021/08/04 05:28:10;;;;;;;;;9.75;8.50;;;;;17.96;57.45;100533.06;5019161;28;46074;-80
2021/08/04 05:30:36;;;;;;;;;9.50;9.00;;;;;18.03;57.16;100536.72;5024796;28;45599;-81
2021/08/04 05:33:01;;;;;;;;;6.75;6.75;;;;;18.02;57.60;100535.91;5025039;28;45497;-81
2021/08/04 05:35:27;;;;;;;;;9.00;7.00;;;;;18.07;57.58;100545.22;5024372;28;45618;-77
2021/08/04 05:37:52;;;;;;;;;8.50;8.00;;;;;18.08;57.61;100541.56;5024387;28;45706;-79
2021/08/04 05:43:39;;;;;;;;;8.00;8.00;;;;;18.04;57.51;100535.75;5018857;28;45627;-79
2021/08/04 05:46:04;;;;;;;;;7.00;6.25;;;;;18.11;56.99;100541.25;5016738;28;45572;-79
2021/08/04 05:48:30;;;;;;;;;8.25;8.00;;;;;18.06;57.27;100533.78;5016537;28;45552;-80
2021/08/04 05:50:55;;;;;;;;;6.75;6.50;;;;;18.13;57.40;100544.59;5016225;28;45520;-80
2021/08/04 05:53:20;;;;;;;;;9.50;8.75;;;;;18.13;56.98;100548.06;5016720;28;45501;-79
2021/08/04 05:59:08;;;;;;;;;8.00;8.00;;;;;18.15;56.73;100550.53;5015892;28;45921;-78
2021/08/04 06:01:33;;;;;;;;;8.00;8.00;;;;;18.19;56.63;100554.56;5016121;28;45748;-80
2021/08/04 06:03:58;;;;;;;;;7.75;7.00;;;;;18.20;56.63;100561.50;5016013;28;45622;-80
2021/08/04 06:06:24;;;;;;;;;7.75;7.75;;;;;18.21;57.20;100560.50;5016065;28;45814;-79
2021/08/04 06:08:49;;;;;;;;;8.75;8.00;;;;;18.19;56.95;100547.41;5016001;28;46007;-80
2021/08/04 06:11:15;;;;;;;;;6.50;6.25;;;;;18.25;56.72;100554.72;5016137;28;45519;-80
2021/08/04 06:13:40;;;;;;;;;9.00;7.50;;;;;18.30;57.24;100554.28;5014580;28;45720;-79
2021/08/04 06:16:05;;;;;;;;;9.50;9.00;;;;;18.26;57.21;100539.66;5015738;28;46277;-79
2021/08/04 06:18:31;;;;;;;;;10.00;9.25;;;;;18.34;56.70;100551.13;5015769;28;45811;-81
2021/08/04 06:20:56;;;;;;;;;9.75;9.25;;;;;18.37;56.50;100552.63;5015867;28;45462;-78
2021/08/04 06:23:22;;;;;;;;;9.75;9.00;;;;;18.34;56.61;100539.69;5016142;28;45703;-80
2021/08/04 06:29:09;;;;;;;;;9.75;8.00;;;;;18.41;56.84;100540.69;5015540;28;45653;-77
2021/08/04 06:31:34;;;;;;;;;8.50;7.75;;;;;18.36;56.76;100530.56;5015486;28;45639;-81
2021/08/04 06:33:59;;;;;;;;;9.25;8.00;;;;;18.45;56.57;100542.03;4997609;28;45619;-81
2021/08/04 06:36:25;;;;;;;;;8.50;7.75;;;;;18.48;56.70;100544.38;5015357;28;46428;-80
2021/08/04 06:38:50;;;;;;;;;9.00;9.00;;;;;18.50;56.68;100541.56;5014678;28;45640;-80
2021/08/04 06:41:16;;;;;;;;;10.00;8.50;;;;;18.29;56.43;100508.34;5015273;28;45594;-80
2021/08/04 06:43:41;;;;;;;;;8.00;7.00;;;;;18.58;56.18;100549.56;5015577;28;45712;-79
2021/08/04 06:46:11;;;;;;;;;9.25;7.50;;;;;18.61;55.96;100543.94;5015066;28;45680;-79
2021/08/04 06:48:36;;;;;;;;;8.75;8.25;;;;;18.64;56.09;100547.09;5014863;28;46516;-78
2021/08/04 06:51:02;;;;;;;;;5.75;5.50;;;;;18.60;56.16;100535.16;5015015;28;45577;-78
2021/08/04 06:53:27;;;;;;;;;9.00;9.00;;;;;18.70;56.33;100545.63;5015265;28;45524;-78
2021/08/04 06:59:14;;;;;;;;;11.25;10.75;;;;;18.65;56.55;100532.84;5014766;28;45832;-81
2021/08/04 07:01:40;;;;;;;;;10.75;10.25;;;;;18.72;55.98;100540.97;5015255;28;45529;-80
2021/08/04 07:04:05;;;;;;;;;10.75;9.50;;;;;18.80;55.90;100549.78;5015195;28;46203;-79
2021/08/04 07:06:30;;;;;;;;;11.50;9.25;;;;;18.84;55.80;100552.94;5014920;28;45643;-80
2021/08/04 07:08:56;;;;;;;;;11.25;10.75;;;;;18.83;56.22;100541.50;5014866;28;45763;-78
2021/08/04 07:11:22;;;;;;;;;12.25;10.50;;;;;18.83;56.04;100552.13;5015050;28;45848;-78
2021/08/04 07:13:49;;;;;;;;;10.50;10.00;;;;;18.92;55.91;100562.75;5014424;28;45659;-78
2021/08/04 07:16:17;;;;;;;;;9.75;9.75;;;;;18.96;55.61;100553.44;5014225;28;46546;-79
2021/08/04 07:18:44;;;;;;;;;12.25;11.25;;;;;18.88;55.74;100548.13;5014406;28;46264;-76
2021/08/04 07:21:09;;;;;;;;;10.75;10.25;;;;;18.98;55.62;100565.59;5015052;28;45742;-77
2021/08/04 07:23:35;;;;;;;;;11.00;10.50;;;;;19.01;55.71;100562.59;5015167;28;45775;-78
2021/08/04 07:29:22;;;;;;;;;12.50;11.00;;;;;19.08;55.71;100549.47;5016648;28;45600;-83
2021/08/04 07:31:47;;;;;;;;;11.75;10.75;;;;;19.08;55.61;100547.66;5017990;28;46045;-82
2021/08/04 07:34:15;;;;;;;;;11.25;9.50;;;;;19.07;56.02;100537.19;5017138;28;45753;-80
2021/08/04 07:36:41;;;;;;;;;10.25;9.75;;;;;19.14;55.77;100544.34;5016626;28;45663;-81
2021/08/04 07:39:06;;;;;;;;;8.75;8.75;;;;;19.21;55.84;100544.53;5018513;28;46006;-82
2021/08/04 07:41:32;;;;;;;;;10.00;9.25;;;;;19.19;55.45;100543.84;5018939;28;45588;-79
2021/08/04 07:43:58;;;;;;;;;13.25;10.50;;;;;19.31;55.52;100544.34;5000926;28;45620;-82
2021/08/04 07:46:23;;;;;;;;;10.75;9.75;;;;;19.34;55.46;100544.81;5020070;28;45839;-82
2021/08/04 07:48:49;;;;;;;;;10.00;9.50;;;;;19.39;55.71;100555.78;5020647;28;45549;-83
2021/08/04 07:51:15;;;;;;;;;12.00;11.00;;;;;19.40;55.89;100541.50;5021176;28;45563;-79
2021/08/04 07:53:41;;;;;;;;;11.75;10.50;;;;;19.40;55.50;100541.50;5022787;28;45473;-81
2021/08/04 07:59:28;;;;;;;;;11.25;9.50;;;;;19.58;55.28;100557.31;5022226;28;45836;-83
2021/08/04 08:01:53;;;;;;;;;10.25;9.75;;;;;19.60;55.53;100553.47;5022396;28;45657;-79
2021/08/04 08:04:19;;;;;;;;;8.75;8.00;;;;;19.58;55.25;100542.19;5017137;28;45796;-79
2021/08/04 08:06:44;;;;;;;;;10.25;10.00;;;;;19.62;54.92;100550.66;5017512;28;46488;-82
2021/08/04 08:09:11;;;;;;;;;11.50;9.75;;;;;19.66;55.03;100551.97;5017908;28;45610;-81
2021/08/04 08:11:37;;;;;;;;;9.00;7.75;;;;;19.65;54.81;100548.47;4998224;28;45781;-82
2021/08/04 08:14:03;;;;;;;;;7.25;6.50;;;;;19.74;55.00;100548.47;5013687;28;45589;-82
2021/08/04 08:16:29;;;;;;;;;8.00;7.00;;;;;19.76;54.90;100549.94;5013823;28;45675;-81
2021/08/04 08:18:54;;;;;;;;;7.00;7.00;;;;;19.72;55.00;100532.69;5013740;28;46623;-83
2021/08/04 08:21:23;;;;;;;;;8.00;7.50;;;;;19.79;54.81;100548.78;5013885;28;45714;-81
2021/08/04 08:23:49;;;;;;;;;7.00;6.00;;;;;19.83;54.60;100550.94;5014345;28;45751;-80
2021/08/04 08:29:36;;;;;;;;;10.50;7.25;;;;;19.85;54.27;100546.28;5013482;28;46270;-81
2021/08/04 08:32:01;;;;;;;;;7.25;7.00;;;;;19.88;54.39;100545.94;5014184;28;45560;-80
2021/08/04 08:34:27;;;;;;;;;7.00;6.00;;;;;19.91;53.86;100548.28;5013872;28;45584;-81
2021/08/04 08:36:52;;;;;;;;;7.00;6.25;;;;;19.95;54.09;100548.75;5013450;28;47270;-79
2021/08/04 08:39:18;;;;;;;;;7.00;6.25;;;;;19.98;53.85;100549.22;5013391;28;46249;-82
2021/08/04 08:41:45;;;;;;;;;5.00;4.00;;;;;20.04;53.94;100558.34;5013911;28;45545;-81
2021/08/04 08:44:11;;;;;;;;;6.00;5.75;;;;;20.10;53.95;100552.34;5013961;28;45842;-81
2021/08/04 08:46:36;;;;;;;;;5.75;5.75;;;;;20.15;53.36;100551.81;5013772;28;46291;-81
2021/08/04 08:49:03;;;;;;;;;6.00;5.00;;;;;20.18;53.19;100547.00;5013426;28;45802;-80
2021/08/04 08:51:29;;;;;;;;;6.00;5.75;;;;;20.21;53.15;100549.31;5013561;28;45661;-81
2021/08/04 08:53:55;;;;;;;;;7.00;7.00;;;;;20.25;53.08;100549.78;5013654;28;45552;-80
2021/08/04 08:59:43;;;;;;;;;5.50;4.75;;;;;20.27;52.77;100532.66;5013269;28;45836;-79
2021/08/04 09:02:08;;;;;;;;;7.00;6.50;;;;;20.29;52.65;100546.63;5014074;28;45527;-80
2021/08/04 09:04:33;;;;;;;;;5.25;4.50;;;;;20.35;52.55;100545.94;4999300;28;45540;-80
2021/08/04 09:07:00;;;;;;;;;6.00;5.25;;;;;20.40;52.36;100548.13;5016529;28;46319;-81
2021/08/04 09:09:27;;;;;;;;;5.00;4.00;;;;;20.42;52.13;100541.59;5016558;28;46029;-80
2021/08/04 09:12:14;;;;;;;;;5.00;5.00;;;;;20.43;52.27;100542.44;5016965;28;45601;-81
2021/08/04 09:14:42;;;;;;;;;6.00;6.00;;;;;20.48;52.20;100551.53;5015988;28;46056;-82
2021/08/04 09:17:13;;;;;;;;;6.25;5.00;;;;;20.52;52.13;100552.84;5016388;28;46419;-82
2021/08/04 09:19:50;;;;;;;;;4.00;4.00;;;;;20.58;51.66;100550.50;5016279;28;47343;-79
2021/08/04 09:22:25;;;;;;;;;5.00;5.00;;;;;20.66;51.88;100550.47;5016682;28;45636;-81
2021/08/04 09:25:03;;;;;;;;;5.25;5.00;;;;;20.71;51.49;100551.59;5016416;28;45844;-81
2021/08/04 09:27:51;;;;;;;;;5.50;4.75;;;;;20.75;51.32;100547.56;5016274;28;45547;-82
2021/08/04 09:30:25;;;;;;;;;4.50;3.75;;;;;20.80;51.14;100539.03;5016501;28;45934;-82
2021/08/04 09:32:51;;;;;;;;;5.25;4.25;;;;;20.84;50.92;100538.50;5017158;28;45617;-77
2021/08/04 09:35:20;;;;;;;;;6.00;6.00;;;;;20.90;51.09;100531.66;5017135;28;45699;-77
2021/08/04 09:37:47;;;;;;;;;6.75;5.00;;;;;20.85;50.67;100510.88;5016544;28;46356;-78
2021/08/04 09:40:15;;;;;;;;;7.00;5.50;;;;;20.92;50.75;100519.00;5016625;28;46082;-79
2021/08/04 09:42:41;;;;;;;;;7.25;5.50;;;;;21.04;50.69;100525.56;5016221;28;45707;-77
2021/08/04 09:45:07;;;;;;;;;4.00;4.00;;;;;21.09;50.42;100517.84;5016986;28;45668;-78
2021/08/04 09:47:33;;;;;;;;;6.00;6.00;;;;;21.12;50.53;100517.47;5017680;28;46617;-78
2021/08/04 09:50:01;;;;;;;;;9.00;6.50;;;;;21.19;50.21;100512.31;5017039;28;45914;-78
2021/08/04 09:52:30;;;;;;;;;5.50;5.00;;;;;21.25;50.15;100506.25;5016834;28;45562;-78
2021/08/04 09:55:09;;;;;;;;;4.50;4.00;;;;;21.30;49.81;100510.03;5016602;28;45671;-78
2021/08/04 09:57:42;;;;;;;;;5.25;4.25;;;;;21.33;50.04;100506.16;5017168;28;46369;-78
2021/08/04 10:00:12;;;;;;;;;4.75;4.75;;;;;21.44;49.72;100515.56;5017625;28;45974;-79
2021/08/04 10:02:38;;;;;;;;;5.50;5.00;;;;;21.44;49.70;100502.22;5017637;28;45737;-81
2021/08/04 10:05:13;;;;;;;;;6.50;5.50;;;;;21.51;49.14;100509.34;5017070;28;45470;-80
2021/08/04 10:07:58;;;;;;;;;6.00;5.00;;;;;21.57;49.03;100510.44;5021341;28;46487;-81
2021/08/04 10:10:23;;;;;;;;;5.25;4.25;;;;;21.62;49.15;100508.88;5023814;28;46191;-81
2021/08/04 10:12:49;;;;;;;;;6.25;6.00;;;;;21.69;48.92;100509.81;5023944;28;45547;-79
2021/08/04 10:15:15;;;;;;;;;6.00;5.00;;;;;21.70;49.23;100500.78;5022937;28;45497;-81
2021/08/04 10:17:40;;;;;;;;;5.00;4.25;;;;;21.81;49.07;100510.16;5022215;28;46360;-79
2021/08/04 10:20:07;;;;;;;;;6.00;6.00;;;;;21.83;49.07;100484.16;5019793;28;45874;-81
2021/08/04 10:22:32;;;;;;;;;5.25;5.00;;;;;21.95;49.13;100492.53;5017115;28;45712;-79
2021/08/04 10:24:58;;;;;;;;;5.00;5.00;;;;;21.98;48.99;100484.97;5015801;28;45523;-81
2021/08/04 10:27:23;;;;;;;;;5.00;5.00;;;;;22.04;48.20;100494.09;5016086;28;45562;-81
2021/08/04 10:29:49;;;;;;;;;5.50;5.50;;;;;22.07;48.50;100483.06;5015676;28;46277;-80
2021/08/04 10:32:15;;;;;;;;;5.00;5.00;;;;;22.13;48.88;100490.31;5016142;28;45648;-81
2021/08/04 10:34:42;;;;;;;;;7.00;6.75;;;;;22.16;48.03;100484.59;5015886;28;45625;-80
2021/08/04 10:37:11;;;;;;;;;7.00;7.00;;;;;22.17;48.10;100483.59;5015540;28;46608;-80
2021/08/04 10:39:37;;;;;;;;;6.50;5.50;;;;;22.03;47.83;100452.41;5015411;28;46339;-81
2021/08/04 10:45:24;;;;;;;;;6.00;6.00;;;;;22.21;47.84;100487.53;5015189;28;45620;-80
2021/08/04 10:47:51;;;;;;;;;5.00;4.25;;;;;22.19;48.13;100481.53;5015236;28;45935;-82
2021/08/04 10:50:16;;;;;;;;;7.00;6.75;;;;;;;;5015132;28;46405;-80
2021/08/04 10:53:06;;;;;;;;;5.25;5.00;;;;;22.24;47.99;100489.00;5015348;28;45812;-80
2021/08/04 10:55:53;;;;;;;;;4.75;4.75;;;;;22.25;47.53;100493.31;4934777;28;45770;-79
2021/08/04 10:58:19;;;;;;;;;3.25;3.25;;;;;22.23;47.49;100485.50;4917842;28;48267;-80
2021/08/04 11:00:45;;;;;;;;;5.25;4.25;;;;;22.25;47.43;100496.81;4934670;28;45943;-80
2021/08/04 11:03:29;;;;;;;;;5.00;4.00;;;;;22.29;47.83;100499.97;4934738;28;45690;-80
2021/08/04 11:06:12;;;;;;;;;5.50;4.75;;;;;22.31;47.96;100501.41;4934450;28;45762;-80
2021/08/04 11:08:39;;;;;;;;;7.00;5.00;;;;;22.30;48.13;100491.72;4934659;28;46773;-82
2021/08/04 11:11:04;;;;;;;;;5.00;5.00;;;;;22.32;47.57;100497.72;4934596;28;45636;-81
2021/08/04 11:13:44;;;;;;;;;6.25;6.25;;;;;22.30;48.04;100494.41;4934025;28;45790;-82
2021/08/04 11:16:35;;;;;;;;;6.00;6.00;;;;;22.29;48.19;100494.63;4934417;28;45758;-81
2021/08/04 11:19:10;;;;;;;;;5.00;5.00;;;;;22.33;47.58;100495.88;4930407;28;45742;-81
2021/08/04 11:21:37;;;;;;;;;5.75;4.25;;;;;22.36;47.65;100498.16;4934409;28;45492;-81
2021/08/04 11:24:03;;;;;;;;;6.25;5.00;;;;;22.39;48.16;100498.63;4934335;28;45714;-82
2021/08/04 11:26:30;;;;;;;;;5.00;5.00;;;;;22.42;47.82;100495.59;4934210;28;45795;-82
2021/08/04 11:28:57;;;;;;;;;4.25;4.25;;;;;22.47;47.42;100503.03;4934367;28;46589;-82
2021/08/04 11:31:23;;;;;;;;;16.00;16.00;;;;;22.44;47.91;100488.22;4936250;28;46002;-81
2021/08/04 11:33:48;;;;;;;;;7.00;6.00;;;;;22.54;47.45;100494.06;5014618;28;45505;-81
2021/08/04 11:36:34;;;;;;;;;5.00;4.00;;;;;22.57;47.51;100492.84;5014418;28;45597;-82
2021/08/04 11:39:09;;;;;;;;;5.75;5.25;;;;;22.59;47.46;100486.31;5013966;28;46523;-82
2021/08/04 11:41:45;;;;;;;;;5.00;5.00;;;;;22.53;47.55;100479.06;5014373;28;45793;-81
2021/08/04 11:44:19;;;;;;;;;5.25;5.00;;;;;22.60;47.22;100487.97;5014639;28;45645;-81
2021/08/04 11:46:52;;;;;;;;;6.25;4.00;;;;;22.59;47.30;100486.31;5014714;28;45742;-81
2021/08/04 11:49:29;;;;;;;;;4.75;4.00;;;;;22.59;47.85;100485.50;5014645;28;45733;-81
2021/08/04 11:52:06;;;;;;;;;4.25;4.00;;;;;22.57;47.61;100487.50;5015128;28;46974;-77
2021/08/04 11:54:38;;;;;;;;;5.00;5.00;;;;;22.52;47.86;100485.41;5014136;28;45688;-81
2021/08/04 11:57:06;;;;;;;;;4.25;4.00;;;;;22.52;47.50;100485.41;5014037;28;45573;-81
2021/08/04 11:59:49;;;;;;;;;2.75;2.25;;;;;22.47;48.00;100487.00;5014325;28;45602;-80
2021/08/04 12:02:16;;;;;;;;;5.75;5.00;;;;;22.39;47.92;100476.44;5015170;28;46066;-78
2021/08/04 12:04:44;;;;;;;;;7.00;6.50;;;;;22.44;47.46;100492.72;5015677;28;45670;-80
2021/08/04 12:07:09;;;;;;;;;8.00;7.00;;;;;22.41;47.66;100495.75;5014961;28;45619;-82
2021/08/04 12:09:38;;;;;;;;;6.00;5.50;;;;;22.32;48.43;100480.88;5014597;28;47238;-79
2021/08/04 12:12:16;;;;;;;;;5.00;5.00;;;;;22.37;48.50;100491.81;5015178;28;45453;-82
2021/08/04 12:14:41;;;;;;;;;5.00;4.75;;;;;22.32;48.71;100486.22;5015149;28;45652;-79
2021/08/04 12:17:07;;;;;;;;;4.25;3.75;;;;;22.30;48.38;100483.72;5022340;28;45650;-79
2021/08/04 12:19:56;;;;;;;;;5.00;4.00;;;;;22.30;48.39;100483.72;5022017;28;45559;-81
2021/08/04 12:22:24;;;;;;;;;5.25;5.00;;;;;22.26;49.16;100469.09;4940042;28;45865;-82
2021/08/04 12:24:58;;;;;;;;;5.25;4.50;;;;;22.28;48.59;100467.09;4937414;28;45576;-82
2021/08/04 12:27:43;;;;;;;;;4.50;4.25;;;;;22.26;49.37;100466.44;4936790;28;45642;-80
2021/08/04 12:30:11;;;;;;;;;6.00;5.00;;;;;22.21;49.61;100458.16;4933726;28;46469;-82